Archdale, North Carolina
Current Conditions -  °F | °C
As of 11:54 AM on Friday 19 Dec 2014 (Local Time) from KGSO Reporting Station
Few Clouds Few Clouds  
Wind Chill: 47°   Ceiling: Unl
Heat Index: 49°   Visibility: 10mi
Dew Point: 19°   Wind: 6mph
Humidity: 31%   Direction: 310°NW
Pressure: 30.13"   Gusts: NA
Location:  35.9136°N, 79.9465°W
Report Text: KGSO 191654Z 31005KT 10SM FEW250 09/M07 A3013 RMK AO2 SLP204 T00941072
Loading
Personal Weather Stations






























Interactive Weather Map New forecast layout! Learn more

10-Day Weather Forecast

Advertisements
Track Severe Weather on mobile